BGGH

Godthaab / Nuuk Airport

Nuuk, Greenland

BGGH 210950Z 01011KT 2200 BCFG BKN002 OVC003 00/00 Q1013

Observed Flight Rules
Sep-21 @ 09:50 UTC (29 minutes ago)
 
Low Instrument Flight Rules
Wind Visibility Clouds Conditions
10° at 11 knots 2,205 meters
  • Broken at 200' AGL
  • Overcast at 300' AGL
  • Patches of
  • Fog
Temperatures Readings
Current 0°C / 32°F
Dewpoint 0°C / 32°F
Humidity 100%
Altimeter 29.91" Hg
Pressure 1013 hPa
Elevation 70
Observed Flight Rules
Sep-21 @ 09:50 UTC
(29 minutes ago)
 
LIFR
Wind Visibility
10° at 11 knots 2,205 meters
Clouds Conditions
  • Broken at 200' AGL
  • Overcast at 300' AGL
  • Patches of
  • Fog
Temperature Dewpoint
0°C / 32°F 0°C / 32°F
Humidity Altimeter Pressure
100% 29.91" Hg 1013 hPa